createdAt,value
2019-03-01T00:00:17.400Z,8.77
2019-03-01T00:02:46.063Z,12.40
2019-03-01T00:05:34.121Z,13.93
2019-03-01T00:08:11.337Z,9.77
2019-03-01T00:10:48.449Z,8.90
2019-03-01T00:13:39.437Z,11.67
2019-03-01T00:16:13.739Z,7.67
2019-03-01T00:19:00.491Z,8.00
2019-03-01T00:21:53.453Z,12.63
2019-03-01T00:24:31.045Z,8.83
2019-03-01T00:27:05.667Z,10.40
2019-03-01T00:29:53.968Z,8.20
2019-03-01T00:32:31.231Z,9.90
2019-03-01T00:35:24.009Z,9.30
2019-03-01T00:38:01.572Z,7.67
2019-03-01T00:41:05.702Z,14.13
2019-03-01T00:43:59.465Z,10.70
2019-03-01T00:46:27.963Z,11.20
2019-03-01T00:48:56.489Z,9.97
2019-03-01T00:51:25.072Z,10.27
2019-03-01T00:53:53.516Z,11.23
2019-03-01T00:56:22.294Z,11.97
2019-03-01T00:58:50.805Z,14.63
2019-03-01T01:01:19.331Z,10.13
2019-03-01T01:03:47.770Z,16.37
2019-03-01T01:06:16.297Z,14.37
2019-03-01T01:08:44.954Z,17.90
2019-03-01T01:11:13.555Z,15.47
2019-03-01T01:13:42.005Z,16.07
2019-03-01T01:16:10.460Z,15.37
2019-03-01T01:18:38.896Z,18.73
2019-03-01T01:21:07.404Z,19.00
2019-03-01T01:23:35.952Z,18.83
2019-03-01T01:26:07.053Z,19.70
2019-03-01T01:28:35.576Z,19.23
2019-03-01T01:31:04.086Z,18.90
2019-03-01T01:33:32.536Z,19.77
2019-03-01T01:36:03.896Z,22.07
2019-03-01T01:38:32.356Z,14.87
2019-03-01T01:41:00.809Z,21.77
2019-03-01T01:43:29.337Z,20.63
2019-03-01T01:45:57.773Z,18.87
2019-03-01T01:48:26.230Z,19.17
2019-03-01T01:50:54.669Z,22.60
2019-03-01T01:53:23.154Z,20.43
2019-03-01T01:55:51.584Z,16.17
2019-03-01T01:58:20.113Z,16.23
2019-03-01T02:00:48.553Z,18.10
2019-03-01T02:03:17.085Z,14.13
2019-03-01T02:05:45.589Z,17.93
2019-03-01T02:08:14.869Z,17.57
2019-03-01T02:10:45.090Z,11.83
2019-03-01T02:13:13.617Z,13.27
2019-03-01T02:15:42.189Z,16.57
2019-03-01T02:18:10.647Z,13.07
2019-03-01T02:20:39.088Z,10.40
2019-03-01T02:23:07.544Z,12.27
2019-03-01T02:25:35.984Z,14.63
2019-03-01T02:28:07.314Z,14.10
2019-03-01T02:30:44.726Z,16.03
2019-03-01T02:33:13.284Z,12.47
2019-03-01T02:35:41.719Z,12.50
2019-03-01T02:38:10.172Z,11.43
2019-03-01T02:40:38.614Z,10.67
2019-03-01T02:43:07.073Z,12.73
2019-03-01T02:45:35.509Z,11.00
2019-03-01T02:48:04.101Z,11.40
2019-03-01T02:50:33.148Z,8.30
2019-03-01T02:53:01.593Z,10.40
2019-03-01T02:55:30.932Z,9.20
2019-03-01T02:57:59.438Z,9.53
2019-03-01T03:00:29.592Z,10.03
2019-03-01T03:02:58.205Z,10.77
2019-03-01T03:05:26.734Z,8.80
2019-03-01T03:07:56.882Z,6.37
2019-03-01T03:10:25.409Z,6.57
2019-03-01T03:12:56.772Z,8.83
2019-03-01T03:15:38.615Z,7.90
2019-03-01T03:18:07.066Z,7.90
2019-03-01T03:20:35.721Z,8.57
2019-03-01T03:23:04.618Z,8.43
2019-03-01T03:25:33.144Z,10.87
2019-03-01T03:28:01.571Z,7.50
2019-03-01T03:30:30.239Z,11.40
2019-03-01T03:32:58.763Z,9.40
2019-03-01T03:35:27.658Z,8.60
2019-03-01T03:37:56.139Z,11.00
2019-03-01T03:40:24.577Z,12.10
2019-03-01T03:42:53.042Z,9.13
2019-03-01T03:45:21.694Z,11.40
2019-03-01T03:47:50.168Z,12.10
2019-03-01T03:50:18.824Z,11.33
2019-03-01T03:52:47.418Z,12.03
2019-03-01T03:55:17.845Z,14.27
2019-03-01T03:57:46.733Z,12.23
2019-03-01T04:00:17.465Z,12.00
2019-03-01T04:02:45.994Z,9.63
2019-03-01T04:05:14.837Z,13.27
2019-03-01T04:07:43.535Z,11.87
2019-03-01T04:10:12.677Z,13.67
2019-03-01T04:12:41.128Z,15.83
2019-03-01T04:15:14.789Z,15.77
2019-03-01T04:17:43.384Z,15.50
2019-03-01T04:20:14.781Z,13.30
2019-03-01T04:22:43.655Z,18.93
2019-03-01T04:25:12.615Z,15.53
2019-03-01T04:27:41.148Z,17.33
2019-03-01T04:30:17.042Z,17.03
2019-03-01T04:32:45.932Z,17.30
2019-03-01T04:35:14.966Z,16.73
2019-03-01T04:37:43.907Z,13.67
2019-03-01T04:40:14.054Z,14.77
2019-03-01T04:42:46.414Z,14.27
2019-03-01T04:45:16.640Z,16.60
2019-03-01T04:47:45.191Z,21.80
2019-03-01T04:50:13.944Z,18.20
2019-03-01T04:52:42.774Z,16.67
2019-03-01T04:55:13.646Z,17.73
2019-03-01T04:57:42.084Z,16.27
2019-03-01T05:00:13.635Z,15.93
2019-03-01T05:02:42.641Z,15.50
2019-03-01T05:05:12.752Z,18.90
2019-03-01T05:07:41.580Z,19.50
2019-03-01T05:10:12.928Z,19.97
2019-03-01T05:12:41.437Z,18.70
2019-03-01T05:15:14.571Z,18.97
2019-03-01T05:17:43.611Z,21.37
2019-03-01T05:20:12.413Z,24.07
2019-03-01T05:22:40.993Z,25.20
2019-03-01T05:25:10.897Z,21.73
2019-03-01T05:27:39.476Z,23.03
2019-03-01T05:30:16.264Z,25.37
2019-03-01T05:32:45.160Z,27.63
2019-03-01T05:35:15.265Z,26.97
2019-03-01T05:37:43.781Z,29.33
2019-03-01T05:40:14.883Z,27.47
2019-03-01T05:42:43.472Z,33.73
2019-03-01T05:45:23.918Z,29.67
2019-03-01T05:47:52.382Z,31.80
2019-03-01T05:50:20.894Z,21.23
2019-03-01T05:52:49.329Z,28.07
2019-03-01T05:55:18.104Z,26.27
2019-03-01T05:58:18.384Z,26.00
2019-03-01T06:00:47.385Z,26.70
2019-03-01T06:03:46.269Z,28.23
2019-03-01T06:06:23.909Z,30.33
2019-03-01T06:09:15.902Z,32.67
2019-03-01T06:11:50.416Z,38.73
2019-03-01T06:14:39.779Z,55.77
2019-03-01T06:17:25.845Z,50.53
2019-03-01T06:20:00.081Z,52.23
2019-03-01T06:22:40.436Z,56.67
2019-03-01T06:25:23.793Z,57.27
2019-03-01T06:28:01.497Z,57.10
2019-03-01T06:30:35.885Z,63.93
2019-03-01T06:33:12.776Z,58.83
2019-03-01T06:35:47.163Z,75.67
2019-03-01T06:38:44.025Z,79.03
2019-03-01T06:41:36.174Z,84.13
2019-03-01T06:44:23.968Z,86.50
2019-03-01T06:47:11.767Z,85.03
2019-03-01T06:49:53.656Z,97.23
2019-03-01T06:52:23.404Z,106.57
2019-03-01T06:54:51.967Z,129.73
2019-03-01T06:57:20.416Z,124.13
2019-03-01T06:59:48.876Z,131.23
2019-03-01T07:02:18.965Z,126.53
2019-03-01T07:04:47.429Z,128.97
2019-03-01T07:07:15.872Z,138.00
2019-03-01T07:09:44.336Z,142.13
2019-03-01T07:12:12.944Z,152.13
2019-03-01T07:14:41.406Z,153.17
2019-03-01T07:17:09.844Z,147.73
2019-03-01T07:19:38.309Z,150.20
2019-03-01T07:22:06.769Z,154.10
2019-03-01T07:24:35.234Z,145.37
2019-03-01T07:27:03.673Z,152.30
2019-03-01T07:29:32.140Z,133.97
2019-03-01T07:32:00.584Z,140.37
2019-03-01T07:34:29.050Z,127.57
2019-03-01T07:36:57.489Z,122.67
2019-03-01T07:39:25.957Z,125.23
2019-03-01T07:41:54.498Z,120.57
2019-03-01T07:44:22.971Z,111.07
2019-03-01T07:46:53.232Z,119.63
2019-03-01T07:49:21.996Z,119.33
2019-03-01T07:51:50.500Z,132.63
2019-03-01T07:54:18.940Z,127.43
2019-03-01T07:56:47.400Z,133.23
2019-03-01T07:59:15.912Z,127.63
2019-03-01T08:01:44.385Z,121.47
2019-03-01T08:04:12.900Z,132.93
2019-03-01T08:06:41.363Z,124.07
2019-03-01T08:09:13.383Z,119.90
2019-03-01T08:11:41.877Z,120.13
2019-03-01T08:14:10.477Z,122.67
2019-03-01T08:16:38.992Z,109.47
2019-03-01T08:19:07.427Z,111.30
2019-03-01T08:21:35.896Z,119.03
2019-03-01T08:24:07.618Z,107.60
2019-03-01T08:26:34.947Z,107.67
2019-03-01T08:29:03.591Z,110.57
2019-03-01T08:31:32.100Z,111.63
2019-03-01T08:34:00.544Z,98.43
2019-03-01T08:36:29.415Z,117.23
2019-03-01T08:39:00.893Z,108.27
2019-03-01T08:41:28.108Z,112.50
2019-03-01T08:43:56.554Z,123.17
2019-03-01T08:46:26.791Z,113.50
2019-03-01T08:48:55.208Z,108.50
2019-03-01T08:51:26.468Z,109.70
2019-03-01T08:53:53.902Z,106.23
2019-03-01T08:56:26.155Z,100.97
2019-03-01T08:58:52.789Z,100.40
2019-03-01T09:01:25.797Z,93.13
2019-03-01T09:04:00.459Z,98.87
2019-03-01T09:06:28.896Z,90.07
2019-03-01T09:08:57.348Z,88.73
2019-03-01T09:11:25.929Z,98.13
2019-03-01T09:13:54.383Z,99.30
2019-03-01T09:16:22.843Z,95.83
2019-03-01T09:18:51.319Z,95.20
2019-03-01T09:21:19.876Z,104.90
2019-03-01T09:23:52.263Z,89.40
2019-03-01T09:26:20.129Z,88.40
2019-03-01T09:28:48.887Z,70.13
2019-03-01T09:31:17.837Z,92.97
2019-03-01T09:33:46.486Z,106.47
2019-03-01T09:36:17.816Z,104.17
2019-03-01T09:38:46.871Z,98.83
2019-03-01T09:41:15.383Z,99.50
2019-03-01T09:43:43.924Z,100.10
2019-03-01T09:46:12.441Z,110.57
2019-03-01T09:48:40.900Z,107.90
2019-03-01T09:51:10.669Z,97.60
2019-03-01T09:53:39.501Z,93.67
2019-03-01T09:56:09.759Z,87.47
2019-03-01T09:58:38.139Z,96.17
2019-03-01T10:01:18.533Z,83.00
2019-03-01T10:03:47.219Z,88.43
2019-03-01T10:06:15.962Z,79.40
2019-03-01T10:08:44.408Z,75.50
2019-03-01T10:11:13.025Z,81.43
2019-03-01T10:13:41.547Z,83.30
2019-03-01T10:16:10.204Z,80.43
2019-03-01T10:18:38.640Z,77.40
2019-03-01T10:21:07.178Z,85.27
2019-03-01T10:23:35.620Z,80.17
2019-03-01T10:26:04.248Z,67.30
2019-03-01T10:28:32.704Z,65.33
2019-03-01T10:31:01.217Z,68.23
2019-03-01T10:33:29.661Z,63.20
2019-03-01T10:35:58.121Z,63.27
2019-03-01T10:38:26.565Z,65.90
2019-03-01T10:40:55.015Z,54.40
2019-03-01T10:43:23.581Z,54.37
2019-03-01T10:45:52.210Z,52.87
2019-03-01T10:48:20.643Z,52.43
2019-03-01T10:50:49.101Z,52.13
2019-03-01T10:53:17.630Z,45.97
2019-03-01T10:55:46.107Z,52.70
2019-03-01T10:58:14.556Z,48.90
2019-03-01T11:00:43.017Z,47.93
2019-03-01T11:03:11.452Z,40.93
2019-03-01T11:05:39.914Z,45.27
2019-03-01T11:08:08.352Z,39.17
2019-03-01T11:10:39.020Z,43.90
2019-03-01T11:13:09.877Z,40.43
2019-03-01T11:15:38.346Z,44.27
2019-03-01T11:18:06.921Z,51.23
2019-03-01T11:20:35.459Z,40.70
2019-03-01T11:23:04.067Z,48.07
2019-03-01T11:25:32.594Z,48.03
2019-03-01T11:28:01.099Z,50.27
2019-03-01T11:30:33.959Z,57.93
2019-03-01T11:33:02.493Z,50.87
2019-03-01T11:35:31.019Z,52.33
2019-03-01T11:37:59.511Z,61.63
2019-03-01T11:40:34.958Z,57.27
2019-03-01T11:43:03.755Z,60.43
2019-03-01T11:45:32.425Z,60.40
2019-03-01T11:48:00.878Z,57.87
2019-03-01T11:50:29.793Z,59.10
2019-03-01T11:52:58.306Z,61.93
2019-03-01T11:55:27.087Z,62.37
2019-03-01T11:57:55.724Z,64.07
2019-03-01T12:00:25.372Z,65.57
2019-03-01T12:02:53.966Z,66.60
2019-03-01T12:05:22.855Z,67.10
2019-03-01T12:07:51.483Z,76.03
2019-03-01T12:10:28.209Z,82.47
2019-03-01T12:12:56.670Z,76.40
2019-03-01T12:15:25.181Z,91.40
2019-03-01T12:17:53.647Z,83.57
2019-03-01T12:20:30.615Z,88.80
2019-03-01T12:22:59.073Z,84.20
2019-03-01T12:25:27.601Z,88.77
2019-03-01T12:27:56.142Z,93.83
2019-03-01T12:30:25.930Z,89.37
2019-03-01T12:32:54.595Z,85.93
2019-03-01T12:35:23.107Z,90.90
2019-03-01T12:37:51.643Z,91.60
2019-03-01T12:40:28.376Z,90.27
2019-03-01T12:42:56.912Z,86.60
2019-03-01T12:45:25.426Z,85.20
2019-03-01T12:47:54.065Z,79.20
2019-03-01T12:50:22.694Z,79.90
2019-03-01T12:52:51.620Z,82.57
2019-03-01T12:55:27.870Z,73.63
2019-03-01T12:57:56.364Z,72.10
2019-03-01T13:00:32.340Z,77.10
2019-03-01T13:03:00.852Z,69.43
2019-03-01T13:05:30.332Z,55.03
2019-03-01T13:07:59.447Z,34.30
2019-03-01T13:10:36.932Z,34.90
2019-03-01T13:13:08.163Z,29.43
2019-03-01T13:15:35.980Z,23.63
2019-03-01T13:18:04.498Z,25.30
2019-03-01T13:20:33.824Z,29.83
2019-03-01T13:23:04.653Z,31.30
2019-03-01T13:25:33.372Z,32.60
2019-03-01T13:28:01.808Z,28.73
2019-03-01T13:30:32.710Z,29.97
2019-03-01T13:33:02.266Z,31.87
2019-03-01T13:35:30.880Z,31.83
2019-03-01T13:37:59.667Z,21.80
2019-03-01T13:40:28.126Z,22.83
2019-03-01T13:42:56.652Z,24.23
2019-03-01T13:45:26.265Z,27.77
2019-03-01T13:47:54.845Z,37.27
2019-03-01T13:50:23.925Z,30.53
2019-03-01T13:52:52.511Z,24.80
2019-03-01T13:55:23.615Z,25.80
2019-03-01T13:57:51.634Z,22.73
2019-03-01T14:00:22.110Z,30.43
2019-03-01T14:02:51.146Z,45.17
2019-03-01T14:05:19.962Z,40.67
2019-03-01T14:07:55.389Z,43.77
2019-03-01T14:10:26.781Z,49.90
2019-03-01T14:12:55.368Z,44.10
2019-03-01T14:15:24.586Z,46.97
2019-03-01T14:17:53.141Z,48.13
2019-03-01T14:20:24.717Z,48.83
2019-03-01T14:22:53.330Z,43.20
2019-03-01T14:25:21.805Z,48.70
2019-03-01T14:27:50.315Z,46.83
2019-03-01T14:30:25.280Z,37.27
2019-03-01T14:32:56.998Z,41.43
2019-03-01T14:35:25.867Z,41.13
2019-03-01T14:37:55.550Z,39.70
2019-03-01T14:40:24.278Z,43.07
2019-03-01T14:42:52.876Z,41.40
2019-03-01T14:45:34.697Z,38.13
2019-03-01T14:48:05.190Z,33.27
2019-03-01T14:50:34.633Z,41.77
2019-03-01T14:53:03.334Z,32.47
2019-03-01T14:55:43.917Z,29.97
2019-03-01T14:58:22.234Z,29.23
2019-03-01T15:01:00.697Z,35.43
2019-03-01T15:03:33.646Z,38.07
2019-03-01T15:06:02.419Z,30.97
2019-03-01T15:08:31.018Z,25.47
2019-03-01T15:11:04.288Z,31.33
2019-03-01T15:13:34.710Z,31.23
2019-03-01T15:16:04.643Z,34.13
2019-03-01T15:18:33.550Z,36.50
2019-03-01T15:21:02.790Z,35.50
2019-03-01T15:23:31.751Z,31.27
2019-03-01T15:26:00.355Z,34.83
2019-03-01T15:28:28.820Z,38.07
2019-03-01T15:30:57.452Z,38.40
2019-03-01T15:33:25.992Z,36.13
2019-03-01T15:35:54.497Z,41.40
2019-03-01T15:38:23.838Z,49.90
2019-03-01T15:40:53.157Z,40.40
2019-03-01T15:43:21.615Z,43.90
2019-03-01T15:45:50.122Z,40.77
2019-03-01T15:48:18.580Z,39.77
2019-03-01T15:50:47.039Z,40.07
2019-03-01T15:53:15.603Z,38.33
2019-03-01T15:55:46.880Z,43.30
2019-03-01T15:58:15.373Z,41.50
2019-03-01T16:00:43.971Z,38.63
2019-03-01T16:03:13.317Z,35.73
2019-03-01T16:05:41.782Z,38.13
2019-03-01T16:08:10.432Z,36.43
2019-03-01T16:10:40.363Z,39.93
2019-03-01T16:13:12.210Z,40.50
2019-03-01T16:15:39.838Z,37.97
2019-03-01T16:18:08.353Z,39.87
2019-03-01T16:20:37.031Z,40.53
2019-03-01T16:23:05.727Z,41.87
2019-03-01T16:25:34.600Z,41.63
2019-03-01T16:28:03.258Z,31.43
2019-03-01T16:30:31.784Z,40.47
2019-03-01T16:33:00.225Z,38.30
2019-03-01T16:35:28.781Z,38.33
2019-03-01T16:38:02.436Z,41.73
2019-03-01T16:40:31.064Z,35.60
2019-03-01T16:42:59.569Z,39.77
2019-03-01T16:45:28.047Z,41.87
2019-03-01T16:47:56.544Z,39.00
2019-03-01T16:50:24.993Z,36.93
2019-03-01T16:52:53.542Z,40.33
2019-03-01T16:55:28.686Z,36.07
2019-03-01T16:58:06.224Z,45.57
2019-03-01T17:00:28.575Z,37.13
2019-03-01T17:03:07.953Z,45.77
2019-03-01T17:05:38.731Z,38.10
2019-03-01T17:08:06.899Z,54.03
2019-03-01T17:10:36.301Z,43.00
2019-03-01T17:13:04.814Z,41.20
2019-03-01T17:15:33.512Z,46.23
2019-03-01T17:18:02.045Z,42.40
2019-03-01T17:20:30.584Z,41.50
2019-03-01T17:22:59.761Z,42.77
2019-03-01T17:25:29.547Z,35.90
2019-03-01T17:27:58.095Z,36.23
2019-03-01T17:30:26.982Z,39.90
2019-03-01T17:32:55.501Z,41.37
2019-03-01T17:35:24.259Z,40.73
2019-03-01T17:37:52.805Z,31.57
2019-03-01T17:40:21.389Z,36.40
2019-03-01T17:42:53.207Z,37.23
2019-03-01T17:45:22.322Z,42.10
2019-03-01T17:47:51.142Z,36.87
2019-03-01T17:50:19.657Z,40.40
2019-03-01T17:52:48.261Z,40.17
2019-03-01T17:55:19.221Z,40.67
2019-03-01T17:57:47.766Z,43.03
2019-03-01T18:00:25.444Z,41.83
2019-03-01T18:02:53.580Z,36.73
2019-03-01T18:05:22.375Z,38.40
2019-03-01T18:07:50.896Z,40.17
2019-03-01T18:10:19.431Z,38.40
2019-03-01T18:12:47.893Z,38.70
2019-03-01T18:15:17.080Z,36.23
2019-03-01T18:17:45.541Z,37.20
2019-03-01T18:20:14.721Z,41.70
2019-03-01T18:22:43.307Z,39.57
2019-03-01T18:25:16.479Z,38.93
2019-03-01T18:27:44.979Z,35.27
2019-03-01T18:30:20.031Z,36.93
2019-03-01T18:32:49.445Z,32.87
2019-03-01T18:35:18.009Z,37.30
2019-03-01T18:37:46.560Z,29.73
2019-03-01T18:40:16.842Z,25.27
2019-03-01T18:42:45.247Z,20.93
2019-03-01T18:45:16.540Z,16.33
2019-03-01T18:47:44.973Z,14.37
2019-03-01T18:50:33.532Z,13.93
2019-03-01T18:53:04.011Z,10.83
2019-03-01T18:55:32.752Z,11.30
2019-03-01T18:58:01.324Z,9.77
2019-03-01T19:00:36.848Z,14.30
2019-03-01T19:03:06.351Z,10.40
2019-03-01T19:05:36.715Z,10.83
2019-03-01T19:08:06.122Z,11.23
2019-03-01T19:10:35.776Z,9.27
2019-03-01T19:13:04.770Z,8.13
2019-03-01T19:15:33.598Z,10.60
2019-03-01T19:18:02.085Z,9.63
2019-03-01T19:20:42.706Z,11.53
2019-03-01T19:23:11.141Z,8.47
2019-03-01T19:25:40.090Z,9.63
2019-03-01T19:28:08.575Z,8.13
2019-03-01T19:30:37.203Z,7.93
2019-03-01T19:33:05.723Z,8.87
2019-03-01T19:35:34.367Z,11.87
2019-03-01T19:38:02.806Z,8.37
2019-03-01T19:40:31.256Z,9.80
2019-03-01T19:42:59.909Z,9.93
2019-03-01T19:45:28.360Z,8.97
2019-03-01T19:48:01.284Z,13.13
2019-03-01T19:50:30.097Z,12.97
2019-03-01T19:52:58.612Z,11.17
2019-03-01T19:55:27.069Z,10.30
2019-03-01T19:57:55.533Z,9.93
2019-03-01T20:00:25.230Z,11.63
2019-03-01T20:02:53.743Z,15.43
2019-03-01T20:05:33.599Z,12.37
2019-03-01T20:08:02.376Z,14.63
2019-03-01T20:10:31.089Z,15.37
2019-03-01T20:12:59.732Z,14.43
2019-03-01T20:15:30.317Z,14.93
2019-03-01T20:17:58.854Z,18.00
2019-03-01T20:20:29.992Z,14.90
2019-03-01T20:22:58.789Z,14.17
2019-03-01T20:25:27.968Z,11.93
2019-03-01T20:27:57.146Z,15.27
2019-03-01T20:30:30.232Z,17.77
2019-03-01T20:32:57.935Z,14.93
2019-03-01T20:35:26.464Z,14.33
2019-03-01T20:37:55.152Z,18.80
2019-03-01T20:40:26.615Z,14.67
2019-03-01T20:42:55.767Z,13.13
2019-03-01T20:45:34.612Z,11.50
2019-03-01T20:48:02.769Z,16.17
2019-03-01T20:50:31.228Z,12.17
2019-03-01T20:52:59.687Z,12.80
2019-03-01T20:55:28.193Z,14.90
2019-03-01T20:57:59.861Z,14.40
2019-03-01T21:00:29.800Z,16.13
2019-03-01T21:02:57.985Z,13.33
2019-03-01T21:05:29.002Z,19.37
2019-03-01T21:07:56.608Z,15.20
2019-03-01T21:10:26.393Z,16.17
2019-03-01T21:12:54.848Z,18.00
2019-03-01T21:15:23.464Z,18.73
2019-03-01T21:17:52.963Z,18.17
2019-03-01T21:20:22.318Z,15.03
2019-03-01T21:22:50.785Z,16.30
2019-03-01T21:25:23.061Z,20.03
2019-03-01T21:27:51.662Z,25.47
2019-03-01T21:30:28.005Z,19.07
2019-03-01T21:32:56.610Z,19.93
2019-03-01T21:35:25.121Z,21.57
2019-03-01T21:37:53.825Z,17.20
2019-03-01T21:40:22.330Z,20.37
2019-03-01T21:42:52.726Z,19.47
2019-03-01T21:45:22.522Z,21.47
2019-03-01T21:47:51.284Z,16.77
2019-03-01T21:50:19.937Z,20.80
2019-03-01T21:52:48.462Z,19.27
2019-03-01T21:55:21.254Z,20.57
2019-03-01T21:57:49.872Z,22.57
2019-03-01T22:00:29.728Z,21.87
2019-03-01T22:02:56.475Z,22.87
2019-03-01T22:05:24.926Z,22.37
2019-03-01T22:07:53.400Z,25.90
2019-03-01T22:10:21.905Z,24.23
2019-03-01T22:12:50.369Z,23.70
2019-03-01T22:15:27.117Z,23.83
2019-03-01T22:17:56.155Z,23.17
2019-03-01T22:20:25.009Z,25.63
2019-03-01T22:22:53.542Z,25.60
2019-03-01T22:25:22.291Z,24.17
2019-03-01T22:27:50.761Z,25.00
2019-03-01T22:30:25.307Z,25.77
2019-03-01T22:32:53.771Z,25.00
2019-03-01T22:35:22.199Z,27.90
2019-03-01T22:37:50.666Z,27.67
2019-03-01T22:40:19.344Z,26.40
2019-03-01T22:42:49.696Z,27.53
2019-03-01T22:45:18.710Z,25.97
2019-03-01T22:47:47.231Z,24.83
2019-03-01T22:50:19.882Z,27.73
2019-03-01T22:52:48.480Z,25.63
2019-03-01T22:55:17.857Z,23.30
2019-03-01T22:57:46.352Z,24.10
2019-03-01T23:00:28.588Z,24.00
2019-03-01T23:02:57.228Z,27.00
2019-03-01T23:05:25.667Z,25.33
2019-03-01T23:07:56.948Z,27.37
2019-03-01T23:10:24.356Z,29.00
2019-03-01T23:12:52.897Z,25.33
2019-03-01T23:15:21.641Z,25.77
2019-03-01T23:17:50.099Z,29.33
2019-03-01T23:20:18.540Z,30.60
2019-03-01T23:22:47.004Z,28.50
2019-03-01T23:25:15.532Z,28.23
2019-03-01T23:27:44.083Z,31.10
2019-03-01T23:30:12.599Z,29.53
2019-03-01T23:32:41.036Z,33.43
2019-03-01T23:35:09.633Z,30.30
2019-03-01T23:37:38.894Z,33.70
2019-03-01T23:40:08.468Z,32.73
2019-03-01T23:42:36.903Z,27.83
2019-03-01T23:45:08.613Z,33.67
2019-03-01T23:47:38.391Z,43.13
2019-03-01T23:50:08.967Z,34.57
2019-03-01T23:52:37.407Z,34.20
2019-03-01T23:55:07.109Z,39.53
2019-03-01T23:57:37.988Z,40.30
